createdAt,value
2023-02-20T00:01:55.237Z,14.33
2023-02-20T00:04:24.891Z,16.00
2023-02-20T00:06:53.173Z,23.07
2023-02-20T00:09:21.498Z,26.60
2023-02-20T00:11:50.324Z,17.40
2023-02-20T00:14:18.561Z,19.70
2023-02-20T00:16:48.817Z,19.97
2023-02-20T00:19:17.091Z,19.57
2023-02-20T00:21:50.129Z,19.37
2023-02-20T00:24:18.832Z,21.93
2023-02-20T00:26:50.640Z,20.23
2023-02-20T00:29:19.257Z,21.00
2023-02-20T00:31:52.194Z,13.93
2023-02-20T00:34:20.546Z,22.67
2023-02-20T00:36:50.276Z,21.60
2023-02-20T00:39:18.608Z,21.80
2023-02-20T00:41:47.067Z,21.70
2023-02-20T00:44:15.389Z,25.40
2023-02-20T00:46:43.733Z,18.27
2023-02-20T00:49:12.048Z,21.73
2023-02-20T00:51:40.332Z,23.00
2023-02-20T00:54:10.116Z,26.33
2023-02-20T00:56:38.509Z,25.30
2023-02-20T00:59:06.799Z,23.07
2023-02-20T01:01:35.358Z,23.30
2023-02-20T01:04:03.641Z,23.37
2023-02-20T01:06:31.962Z,25.10
2023-02-20T01:09:00.300Z,28.37
2023-02-20T01:11:30.014Z,23.07
2023-02-20T01:13:58.289Z,25.90
2023-02-20T01:16:26.613Z,24.77
2023-02-20T01:18:55.074Z,27.07
2023-02-20T01:21:23.387Z,29.77
2023-02-20T01:23:51.827Z,22.17
2023-02-20T01:26:20.202Z,26.37
2023-02-20T01:28:50.131Z,23.30
2023-02-20T01:31:18.499Z,27.97
2023-02-20T01:33:47.970Z,24.87
2023-02-20T01:36:16.656Z,24.97
2023-02-20T01:38:44.919Z,22.30
2023-02-20T01:41:13.545Z,24.30
2023-02-20T01:43:41.890Z,25.20
2023-02-20T01:46:44.317Z,17.87
2023-02-20T01:49:14.907Z,22.70
2023-02-20T01:51:44.953Z,22.07
2023-02-20T01:54:14.736Z,17.93
2023-02-20T01:56:45.604Z,17.93
2023-02-20T01:59:14.077Z,19.00
2023-02-20T02:01:43.739Z,15.50
2023-02-20T02:04:12.655Z,19.60
2023-02-20T02:06:42.450Z,17.43
2023-02-20T02:09:20.384Z,21.13
2023-02-20T02:11:50.823Z,13.63
2023-02-20T02:14:19.382Z,16.97
2023-02-20T02:16:54.231Z,15.20
2023-02-20T02:19:34.518Z,18.40
2023-02-20T02:22:18.346Z,15.27
2023-02-20T02:25:05.681Z,13.90
2023-02-20T02:27:57.814Z,12.77
2023-02-20T02:30:37.443Z,12.37
2023-02-20T02:33:17.962Z,13.70
2023-02-20T02:36:06.854Z,12.87
2023-02-20T02:38:40.993Z,11.83
2023-02-20T02:41:12.397Z,14.77
2023-02-20T02:43:48.569Z,12.30
2023-02-20T02:46:22.193Z,12.23
2023-02-20T02:48:54.669Z,10.13
2023-02-20T02:51:25.583Z,11.40
2023-02-20T02:54:07.749Z,9.17
2023-02-20T02:56:36.655Z,12.20
2023-02-20T02:59:05.490Z,16.30
2023-02-20T03:01:35.127Z,12.00
2023-02-20T03:04:03.866Z,17.07
2023-02-20T03:06:35.845Z,10.83
2023-02-20T03:09:05.321Z,10.00
2023-02-20T03:11:36.025Z,7.90
2023-02-20T03:14:24.246Z,9.30
2023-02-20T03:16:54.407Z,13.30
2023-02-20T03:19:27.909Z,13.10
2023-02-20T03:21:57.932Z,7.87
2023-02-20T03:24:27.496Z,12.23
2023-02-20T03:26:58.564Z,9.70
2023-02-20T03:29:29.950Z,9.73
2023-02-20T03:32:20.420Z,12.30
2023-02-20T03:35:07.252Z,8.70
2023-02-20T03:37:54.880Z,15.53
2023-02-20T03:40:41.797Z,9.40
2023-02-20T03:43:25.116Z,11.27
2023-02-20T03:45:54.472Z,8.63
2023-02-20T03:48:26.089Z,9.67
2023-02-20T03:50:54.569Z,16.80
2023-02-20T03:53:23.279Z,12.80
2023-02-20T03:55:53.017Z,15.63
2023-02-20T03:58:26.459Z,7.57
2023-02-20T04:00:57.509Z,7.30
2023-02-20T04:03:27.762Z,8.93
2023-02-20T04:05:57.252Z,4.50
2023-02-20T04:08:26.824Z,6.67
2023-02-20T04:10:58.857Z,7.30
2023-02-20T04:13:28.747Z,8.70
2023-02-20T04:15:58.300Z,17.70
2023-02-20T04:18:28.162Z,11.77
2023-02-20T04:20:57.706Z,11.30
2023-02-20T04:23:26.849Z,15.20
2023-02-20T04:25:57.597Z,10.90
2023-02-20T04:28:26.328Z,11.27
2023-02-20T04:30:56.395Z,7.60
2023-02-20T04:33:25.214Z,7.13
2023-02-20T04:35:54.144Z,9.73
2023-02-20T04:38:22.451Z,12.10
2023-02-20T04:40:50.888Z,8.90
2023-02-20T04:43:19.084Z,9.93
2023-02-20T04:45:47.450Z,9.33
2023-02-20T04:48:17.149Z,8.73
2023-02-20T04:50:45.558Z,12.37
2023-02-20T04:53:13.887Z,11.53
2023-02-20T04:55:42.141Z,11.80
2023-02-20T04:58:10.406Z,13.27
2023-02-20T05:00:38.639Z,13.63
2023-02-20T05:03:06.983Z,11.07
2023-02-20T05:05:36.790Z,8.47
2023-02-20T05:08:06.072Z,6.90
2023-02-20T05:10:35.233Z,12.10
2023-02-20T05:13:03.732Z,13.20
2023-02-20T05:15:32.943Z,9.77
2023-02-20T05:18:01.264Z,6.87
2023-02-20T05:20:43.605Z,16.37
2023-02-20T05:23:13.570Z,10.10
2023-02-20T05:25:41.966Z,15.70
2023-02-20T05:28:10.541Z,14.53
2023-02-20T05:30:39.036Z,14.10
2023-02-20T05:33:07.540Z,9.47
2023-02-20T05:35:39.636Z,11.30
2023-02-20T05:38:07.873Z,9.17
2023-02-20T05:40:37.583Z,9.57
2023-02-20T05:43:06.067Z,11.00
2023-02-20T05:45:34.332Z,11.10
2023-02-20T05:48:02.991Z,17.80
2023-02-20T05:50:31.256Z,13.47
2023-02-20T05:52:59.707Z,15.30
2023-02-20T05:55:27.992Z,9.43
2023-02-20T05:57:57.614Z,9.97
2023-02-20T06:00:26.236Z,7.03
2023-02-20T06:02:54.514Z,10.70
2023-02-20T06:05:24.739Z,9.23
2023-02-20T06:07:52.980Z,9.40
2023-02-20T06:10:21.869Z,19.03
2023-02-20T06:12:50.081Z,7.17
2023-02-20T06:15:20.173Z,9.63
2023-02-20T06:17:48.456Z,11.30
2023-02-20T06:20:17.230Z,10.77
2023-02-20T06:22:45.817Z,10.50
2023-02-20T06:25:14.359Z,13.03
2023-02-20T06:27:42.794Z,14.30
2023-02-20T06:30:11.709Z,6.63
2023-02-20T06:32:41.584Z,12.13
2023-02-20T06:35:10.762Z,7.80
2023-02-20T06:37:39.098Z,10.37
2023-02-20T06:40:07.875Z,10.90
2023-02-20T06:42:36.206Z,14.73
2023-02-20T06:45:04.614Z,9.43
2023-02-20T06:47:33.211Z,11.20
2023-02-20T06:50:07.456Z,10.27
2023-02-20T06:52:35.717Z,13.10
2023-02-20T06:55:03.969Z,9.80
2023-02-20T06:57:33.932Z,7.80
2023-02-20T07:00:02.248Z,9.33
2023-02-20T07:02:30.594Z,13.23
2023-02-20T07:04:58.967Z,13.60
2023-02-20T07:07:28.656Z,11.67
2023-02-20T07:09:57.039Z,7.93
2023-02-20T07:12:25.275Z,9.87
2023-02-20T07:14:53.472Z,15.80
2023-02-20T07:17:21.770Z,10.90
2023-02-20T07:19:50.103Z,11.90
2023-02-20T07:22:18.685Z,10.77
2023-02-20T07:24:51.504Z,13.70
2023-02-20T07:27:19.831Z,10.83
2023-02-20T07:29:48.674Z,13.20
2023-02-20T07:32:20.616Z,12.83
2023-02-20T07:35:02.988Z,11.53
2023-02-20T07:37:33.393Z,9.53
2023-02-20T07:40:03.049Z,9.87
2023-02-20T07:42:32.702Z,15.43
2023-02-20T07:45:00.997Z,12.50
2023-02-20T07:47:29.340Z,14.30
2023-02-20T07:49:57.754Z,12.60
2023-02-20T07:52:26.925Z,14.97
2023-02-20T07:54:55.546Z,14.53
2023-02-20T07:57:25.295Z,15.90
2023-02-20T07:59:53.656Z,17.20
2023-02-20T08:02:21.931Z,16.47
2023-02-20T08:04:50.304Z,20.00
2023-02-20T08:07:18.544Z,16.73
2023-02-20T08:09:48.672Z,13.60
2023-02-20T08:12:17.320Z,21.03
2023-02-20T08:14:46.987Z,18.97
2023-02-20T08:17:15.523Z,20.10
2023-02-20T08:19:43.963Z,25.60
2023-02-20T08:22:12.389Z,20.33
2023-02-20T08:24:40.876Z,27.33
2023-02-20T08:27:09.197Z,17.33
2023-02-20T08:29:37.501Z,17.57
2023-02-20T08:32:07.621Z,25.13
2023-02-20T08:34:36.063Z,24.60
2023-02-20T08:37:04.285Z,24.10
2023-02-20T08:39:32.565Z,20.30
2023-02-20T08:42:00.813Z,23.33
2023-02-20T08:44:29.174Z,23.20
2023-02-20T08:46:58.533Z,24.83
2023-02-20T08:49:28.402Z,24.03
2023-02-20T08:51:58.249Z,20.90
2023-02-20T08:54:26.676Z,19.20
2023-02-20T08:56:54.972Z,21.00
2023-02-20T08:59:23.398Z,14.73
2023-02-20T09:01:51.933Z,17.83
2023-02-20T09:04:22.077Z,18.00
2023-02-20T09:06:51.714Z,17.37
2023-02-20T09:09:20.030Z,18.73
2023-02-20T09:11:48.454Z,21.13
2023-02-20T09:14:16.866Z,17.57
2023-02-20T09:16:45.220Z,24.97
2023-02-20T09:19:15.278Z,21.13
2023-02-20T09:21:47.214Z,19.87
2023-02-20T09:24:16.881Z,27.00
2023-02-20T09:26:45.245Z,23.27
2023-02-20T09:29:13.809Z,21.70
2023-02-20T09:31:42.348Z,23.47
2023-02-20T09:34:11.070Z,21.23
2023-02-20T09:36:39.319Z,25.03
2023-02-20T09:39:07.596Z,22.57
2023-02-20T09:41:44.024Z,25.97
2023-02-20T09:44:14.442Z,23.33
2023-02-20T09:46:45.551Z,23.30
2023-02-20T09:49:14.896Z,25.90
2023-02-20T09:51:46.646Z,21.47
2023-02-20T09:54:16.637Z,27.57
2023-02-20T09:56:47.418Z,23.07
2023-02-20T09:59:17.218Z,25.77
2023-02-20T10:01:51.804Z,21.60
2023-02-20T10:04:23.385Z,25.63
2023-02-20T10:06:53.100Z,23.33
2023-02-20T10:09:21.412Z,25.63
2023-02-20T10:11:59.950Z,29.50
2023-02-20T10:14:35.818Z,24.07
2023-02-20T10:17:10.837Z,26.30
2023-02-20T10:19:43.920Z,26.80
2023-02-20T10:22:15.335Z,24.63
2023-02-20T10:24:54.008Z,23.70
2023-02-20T10:27:30.601Z,29.53
2023-02-20T10:29:59.721Z,26.63
2023-02-20T10:32:31.789Z,24.27
2023-02-20T10:35:03.056Z,36.13
2023-02-20T10:37:46.596Z,27.70
2023-02-20T10:40:20.178Z,25.63
2023-02-20T10:42:53.002Z,25.47
2023-02-20T10:45:27.683Z,25.80
2023-02-20T10:48:00.092Z,31.97
2023-02-20T10:50:31.710Z,24.70
2023-02-20T10:53:02.972Z,23.67
2023-02-20T10:55:36.113Z,26.43
2023-02-20T10:58:07.938Z,24.87
2023-02-20T11:00:40.087Z,29.10
2023-02-20T11:03:09.964Z,29.63
2023-02-20T11:05:40.464Z,23.90
2023-02-20T11:08:08.985Z,25.30
2023-02-20T11:10:42.431Z,27.83
2023-02-20T11:13:16.648Z,26.90
2023-02-20T11:15:45.608Z,25.93
2023-02-20T11:18:21.906Z,26.57
2023-02-20T11:20:50.228Z,23.80
2023-02-20T11:23:36.081Z,27.13
2023-02-20T11:26:23.187Z,22.10
2023-02-20T11:28:58.716Z,27.10
2023-02-20T11:31:27.174Z,24.40
2023-02-20T11:33:57.027Z,24.30
2023-02-20T11:36:26.720Z,29.70
2023-02-20T11:39:00.176Z,25.20
2023-02-20T11:41:30.560Z,30.30
2023-02-20T11:44:18.300Z,28.33
2023-02-20T11:46:47.426Z,25.63
2023-02-20T11:49:26.944Z,28.50
2023-02-20T11:52:07.832Z,32.00
2023-02-20T11:54:36.145Z,27.13
2023-02-20T11:57:06.193Z,24.40
2023-02-20T11:59:37.715Z,24.77
2023-02-20T12:02:25.512Z,29.73
2023-02-20T12:05:17.981Z,26.33
2023-02-20T12:07:55.335Z,27.83
2023-02-20T12:10:26.247Z,27.93
2023-02-20T12:12:54.951Z,24.07
2023-02-20T12:15:25.900Z,23.57
2023-02-20T12:18:14.424Z,29.40
2023-02-20T12:20:44.624Z,26.73
2023-02-20T12:23:18.586Z,21.10
2023-02-20T12:25:54.433Z,23.83
2023-02-20T12:28:25.889Z,24.60
2023-02-20T12:31:00.374Z,28.63
2023-02-20T12:33:40.001Z,24.80
2023-02-20T12:36:12.765Z,22.93
2023-02-20T12:38:45.701Z,22.60
2023-02-20T12:41:34.728Z,26.67
2023-02-20T12:44:14.391Z,21.30
2023-02-20T12:46:50.417Z,25.60
2023-02-20T12:49:24.846Z,28.17
2023-02-20T12:51:54.994Z,26.13
2023-02-20T12:54:29.169Z,25.63
2023-02-20T12:57:02.883Z,31.33
2023-02-20T12:59:33.509Z,21.83
2023-02-20T13:02:06.352Z,23.47
2023-02-20T13:04:37.714Z,28.77
2023-02-20T13:07:09.810Z,26.93
2023-02-20T13:09:39.007Z,25.80
2023-02-20T13:12:09.331Z,32.63
2023-02-20T13:14:43.024Z,30.43
2023-02-20T13:17:20.201Z,21.47
2023-02-20T13:19:54.976Z,20.87
2023-02-20T13:22:23.242Z,19.13
2023-02-20T13:24:51.568Z,21.57
2023-02-20T13:27:29.822Z,20.77
2023-02-20T13:29:59.650Z,18.50
2023-02-20T13:32:30.467Z,30.67
2023-02-20T13:35:13.644Z,23.60
2023-02-20T13:37:57.631Z,20.63
2023-02-20T13:40:39.201Z,21.43
2023-02-20T13:43:37.667Z,19.33
2023-02-20T13:46:20.302Z,22.73
2023-02-20T13:48:50.555Z,20.63
2023-02-20T13:51:32.329Z,23.13
2023-02-20T13:54:05.435Z,23.07
2023-02-20T13:56:44.617Z,27.80
2023-02-20T13:59:14.985Z,20.57
2023-02-20T14:01:56.085Z,18.57
2023-02-20T14:04:25.980Z,18.10
2023-02-20T14:06:59.197Z,16.13
2023-02-20T14:09:31.531Z,20.60
2023-02-20T14:12:07.961Z,21.20
2023-02-20T14:14:37.738Z,21.17
2023-02-20T14:17:07.847Z,22.83
2023-02-20T14:19:41.476Z,17.23
2023-02-20T14:22:30.850Z,20.80
2023-02-20T14:25:19.791Z,19.70
2023-02-20T14:27:50.331Z,21.87
2023-02-20T14:30:19.656Z,19.73
2023-02-20T14:32:48.977Z,20.27
2023-02-20T14:35:41.306Z,15.43
2023-02-20T14:38:15.367Z,21.60
2023-02-20T14:40:46.254Z,18.83
2023-02-20T14:43:17.092Z,19.77
2023-02-20T14:45:47.665Z,19.90
2023-02-20T14:48:42.330Z,23.83
2023-02-20T14:51:16.498Z,26.67
2023-02-20T14:53:46.112Z,25.20
2023-02-20T14:56:17.446Z,17.50
2023-02-20T14:58:46.293Z,18.57
2023-02-20T15:01:21.548Z,25.60
2023-02-20T15:03:59.492Z,29.60
2023-02-20T15:06:27.889Z,24.13
2023-02-20T15:09:03.574Z,27.00
2023-02-20T15:11:47.424Z,26.03
2023-02-20T15:14:19.455Z,31.23
2023-02-20T15:16:47.965Z,21.77
2023-02-20T15:19:23.353Z,18.80
2023-02-20T15:21:58.169Z,23.73
2023-02-20T15:24:35.873Z,24.47
2023-02-20T15:27:16.235Z,25.80
2023-02-20T15:29:46.157Z,23.10
2023-02-20T15:32:22.574Z,30.33
2023-02-20T15:34:55.260Z,23.03
2023-02-20T15:37:33.711Z,23.17
2023-02-20T15:40:18.416Z,25.90
2023-02-20T15:42:50.024Z,25.83
2023-02-20T15:45:18.508Z,23.30
2023-02-20T15:47:46.842Z,33.10
2023-02-20T15:50:15.180Z,24.23
2023-02-20T15:52:47.546Z,25.30
2023-02-20T15:55:17.630Z,20.80
2023-02-20T15:57:46.356Z,25.93
2023-02-20T16:00:22.270Z,22.67
2023-02-20T16:02:50.911Z,22.83
2023-02-20T16:05:21.626Z,16.93
2023-02-20T16:07:50.038Z,21.23
2023-02-20T16:10:19.726Z,20.20
2023-02-20T16:12:48.629Z,18.87
2023-02-20T16:15:18.181Z,18.70
2023-02-20T16:17:48.220Z,22.53
2023-02-20T16:20:17.685Z,21.50
2023-02-20T16:22:47.075Z,19.10
2023-02-20T16:25:18.200Z,20.63
2023-02-20T16:27:52.898Z,17.63
2023-02-20T16:30:32.694Z,18.13
2023-02-20T16:33:03.939Z,20.43
2023-02-20T16:35:32.255Z,20.17
2023-02-20T16:38:01.558Z,13.97
2023-02-20T16:40:29.911Z,22.23
2023-02-20T16:42:58.340Z,21.83
2023-02-20T16:45:26.856Z,16.67
2023-02-20T16:47:56.827Z,14.60
2023-02-20T16:50:30.057Z,18.03
2023-02-20T16:52:58.994Z,17.93
2023-02-20T16:55:28.118Z,16.10
2023-02-20T16:57:56.530Z,19.23
2023-02-20T17:00:26.207Z,17.70
2023-02-20T17:02:54.715Z,21.20
2023-02-20T17:05:24.184Z,17.50
2023-02-20T17:07:53.902Z,15.63
2023-02-20T17:10:22.428Z,19.20
2023-02-20T17:12:50.738Z,17.50
2023-02-20T17:15:20.005Z,18.93
2023-02-20T17:17:48.263Z,15.87
2023-02-20T17:20:17.593Z,14.27
2023-02-20T17:22:55.677Z,16.53
2023-02-20T17:25:33.308Z,16.77
2023-02-20T17:28:01.711Z,18.50
2023-02-20T17:30:30.110Z,18.73
2023-02-20T17:32:59.278Z,19.00
2023-02-20T17:35:27.567Z,12.03
2023-02-20T17:37:55.903Z,16.63
2023-02-20T17:40:24.135Z,15.57
2023-02-20T17:42:54.042Z,16.00
2023-02-20T17:45:22.316Z,19.07
2023-02-20T17:47:50.701Z,20.93
2023-02-20T17:50:19.407Z,14.93
2023-02-20T17:52:49.408Z,19.53
2023-02-20T17:55:26.503Z,14.43
2023-02-20T17:57:56.314Z,14.60
2023-02-20T18:00:27.860Z,15.30
2023-02-20T18:03:03.445Z,15.83
2023-02-20T18:05:38.670Z,18.00
2023-02-20T18:08:06.922Z,20.63
2023-02-20T18:10:35.208Z,17.30
2023-02-20T18:13:26.630Z,18.70
2023-02-20T18:16:17.765Z,18.57
2023-02-20T18:18:47.460Z,16.97
2023-02-20T18:21:18.695Z,21.10
2023-02-20T18:23:47.116Z,21.60
2023-02-20T18:26:16.355Z,21.30
2023-02-20T18:28:44.705Z,19.83
2023-02-20T18:31:13.794Z,19.30
2023-02-20T18:33:43.331Z,20.30
2023-02-20T18:36:13.121Z,24.30
2023-02-20T18:38:41.548Z,21.97
2023-02-20T18:41:11.977Z,17.17
2023-02-20T18:43:42.047Z,21.30
2023-02-20T18:46:10.411Z,15.80
2023-02-20T18:48:38.876Z,17.67
2023-02-20T18:51:07.480Z,19.17
2023-02-20T18:53:40.048Z,20.90
2023-02-20T18:56:13.215Z,19.63
2023-02-20T18:58:42.079Z,18.00
2023-02-20T19:01:10.478Z,24.63
2023-02-20T19:03:38.853Z,21.23
2023-02-20T19:06:07.528Z,26.63
2023-02-20T19:08:35.961Z,20.30
2023-02-20T19:11:06.504Z,25.97
2023-02-20T19:13:34.885Z,22.50
2023-02-20T19:16:03.186Z,23.23
2023-02-20T19:18:33.795Z,30.43
2023-02-20T19:21:03.877Z,22.67
2023-02-20T19:23:32.607Z,21.80
2023-02-20T19:26:01.020Z,27.17
2023-02-20T19:28:30.933Z,21.80
2023-02-20T19:31:01.322Z,22.97
2023-02-20T19:33:30.244Z,24.47
2023-02-20T19:35:58.719Z,26.33
2023-02-20T19:38:27.172Z,25.13
2023-02-20T19:40:55.475Z,25.13
2023-02-20T19:43:24.021Z,22.87
2023-02-20T19:45:53.779Z,22.17
2023-02-20T19:48:22.243Z,29.70
2023-02-20T19:50:50.681Z,21.80
2023-02-20T19:53:20.164Z,23.70
2023-02-20T19:55:49.851Z,22.80
2023-02-20T19:58:18.162Z,45.97
2023-02-20T20:00:46.640Z,25.57
2023-02-20T20:03:16.482Z,26.00
2023-02-20T20:05:44.790Z,33.00
2023-02-20T20:08:13.348Z,30.00
2023-02-20T20:10:42.710Z,32.37
2023-02-20T20:13:11.151Z,38.20
2023-02-20T20:15:40.452Z,32.57
2023-02-20T20:18:09.765Z,31.73
2023-02-20T20:20:39.501Z,31.03
2023-02-20T20:23:07.784Z,32.77
2023-02-20T20:25:36.521Z,36.27
2023-02-20T20:28:07.471Z,37.37
2023-02-20T20:30:38.347Z,35.77
2023-02-20T20:33:07.070Z,44.27
2023-02-20T20:35:35.914Z,36.83
2023-02-20T20:38:05.880Z,42.93
2023-02-20T20:40:34.223Z,34.30
2023-02-20T20:43:02.652Z,33.93
2023-02-20T20:45:30.984Z,37.37
2023-02-20T20:48:02.355Z,33.53
2023-02-20T20:50:33.069Z,33.03
2023-02-20T20:53:01.788Z,34.60
2023-02-20T20:55:34.044Z,29.50
2023-02-20T20:58:05.506Z,37.17
2023-02-20T21:00:34.468Z,33.00
2023-02-20T21:03:03.076Z,33.77
2023-02-20T21:05:35.792Z,35.77
2023-02-20T21:08:05.901Z,45.47
2023-02-20T21:10:36.389Z,38.53
2023-02-20T21:13:04.703Z,37.70
2023-02-20T21:15:34.298Z,36.80
2023-02-20T21:18:08.708Z,41.80
2023-02-20T21:20:37.115Z,42.20
2023-02-20T21:23:06.703Z,34.33
2023-02-20T21:25:36.511Z,38.50
2023-02-20T21:28:04.841Z,36.40
2023-02-20T21:30:33.186Z,35.60
2023-02-20T21:33:01.681Z,38.30
2023-02-20T21:35:29.990Z,43.47
2023-02-20T21:37:58.383Z,40.33
2023-02-20T21:40:31.689Z,37.63
2023-02-20T21:43:19.368Z,45.40
2023-02-20T21:45:49.741Z,44.90
2023-02-20T21:48:26.162Z,54.90
2023-02-20T21:50:54.394Z,52.03
2023-02-20T21:53:22.714Z,46.53
2023-02-20T21:55:50.930Z,44.83
2023-02-20T21:58:25.549Z,43.20
2023-02-20T22:00:52.664Z,44.97
2023-02-20T22:03:20.773Z,47.93
2023-02-20T22:05:47.951Z,45.20
2023-02-20T22:08:33.618Z,48.50
2023-02-20T22:11:19.437Z,40.00
2023-02-20T22:14:06.460Z,38.00
2023-02-20T22:16:52.442Z,55.30
2023-02-20T22:19:38.454Z,50.60
2023-02-20T22:22:24.677Z,40.47
2023-02-20T22:25:10.826Z,60.50
2023-02-20T22:27:56.740Z,56.60
2023-02-20T22:30:44.144Z,50.27
2023-02-20T22:33:30.455Z,56.43
2023-02-20T22:36:16.708Z,45.70
2023-02-20T22:39:02.436Z,52.13
2023-02-20T22:41:48.458Z,51.03
2023-02-20T22:44:34.397Z,54.07
2023-02-20T22:47:21.567Z,65.50
2023-02-20T22:50:07.503Z,57.17
2023-02-20T22:52:53.542Z,48.07
2023-02-20T22:55:39.741Z,61.33
2023-02-20T22:58:25.712Z,59.03
2023-02-20T23:01:11.999Z,83.67
2023-02-20T23:03:59.782Z,51.27
2023-02-20T23:06:46.176Z,57.87
2023-02-20T23:09:32.352Z,49.17
2023-02-20T23:12:18.183Z,48.20
2023-02-20T23:15:04.197Z,52.87
2023-02-20T23:17:50.330Z,63.93
2023-02-20T23:20:38.471Z,54.57
2023-02-20T23:23:25.108Z,55.77
2023-02-20T23:26:11.342Z,49.77
2023-02-20T23:28:57.818Z,49.60
2023-02-20T23:31:50.081Z,50.53
2023-02-20T23:34:36.164Z,49.77
2023-02-20T23:37:23.314Z,53.43
2023-02-20T23:40:09.469Z,53.27
2023-02-20T23:42:55.490Z,48.53
2023-02-20T23:45:41.636Z,57.50
2023-02-20T23:48:27.477Z,50.13
2023-02-20T23:51:13.577Z,51.53
2023-02-20T23:54:01.163Z,47.60
2023-02-20T23:56:47.010Z,49.93
2023-02-20T23:59:32.862Z,54.17
